createdAt,value
2023-05-10T00:02:24.227Z,100862.53
2023-05-10T00:04:51.913Z,100857.97
2023-05-10T00:07:19.167Z,100861.09
2023-05-10T00:09:46.235Z,100859.38
2023-05-10T00:12:14.611Z,100854.59
2023-05-10T00:14:41.688Z,100861.16
2023-05-10T00:17:08.726Z,100851.25
2023-05-10T00:19:35.794Z,100842.84
2023-05-10T00:22:04.075Z,100835.22
2023-05-10T00:24:31.245Z,100850.31
2023-05-10T00:26:58.322Z,100839.34
2023-05-10T00:29:25.954Z,100833.47
2023-05-10T00:31:53.320Z,100837.91
2023-05-10T00:34:20.601Z,100829.31
2023-05-10T00:36:47.625Z,100824.53
2023-05-10T00:39:14.741Z,100818.97
2023-05-10T00:41:41.765Z,100815.47
2023-05-10T00:44:08.844Z,100810.34
2023-05-10T00:46:37.374Z,100814.66
2023-05-10T00:49:05.437Z,100810.66
2023-05-10T00:51:32.705Z,100806.53
2023-05-10T00:53:59.922Z,100806.53
2023-05-10T00:56:27.957Z,100805.09
2023-05-10T00:58:55.254Z,100802.09
2023-05-10T01:01:22.598Z,100800.19
2023-05-10T01:03:49.757Z,100796.81
2023-05-10T01:06:16.853Z,100798.88
2023-05-10T01:08:44.076Z,100799.19
2023-05-10T01:11:11.424Z,100797.47
2023-05-10T01:13:41.957Z,100795.09
2023-05-10T01:16:09.148Z,100797.78
2023-05-10T01:18:39.129Z,100786.34
2023-05-10T01:21:22.704Z,100791.25
2023-05-10T01:23:58.775Z,100798.09
2023-05-10T01:26:54.145Z,100793.78
2023-05-10T01:30:13.530Z,100789.81
2023-05-10T01:33:01.063Z,100791.72
2023-05-10T01:35:52.364Z,100795.41
2023-05-10T01:38:42.190Z,100783.44
2023-05-10T01:41:18.077Z,100787.91
2023-05-10T01:43:58.710Z,100776.13
2023-05-10T01:46:32.460Z,100779.47
2023-05-10T01:49:01.632Z,100775.66
2023-05-10T01:51:37.537Z,100772.63
2023-05-10T01:54:06.574Z,100779.47
2023-05-10T01:56:36.001Z,100776.59
2023-05-10T01:59:09.872Z,100785.19
2023-05-10T02:01:39.859Z,100782.94
2023-05-10T02:04:10.011Z,100787.56
2023-05-10T02:06:40.506Z,100793.31
2023-05-10T02:09:09.358Z,100800.31
2023-05-10T02:11:39.528Z,100799.19
2023-05-10T02:14:11.647Z,100799.00
2023-05-10T02:16:41.552Z,100798.53
2023-05-10T02:19:10.318Z,100792.94
2023-05-10T02:21:40.151Z,100791.34
2023-05-10T02:24:09.873Z,100790.25
2023-05-10T02:26:38.285Z,100793.56
2023-05-10T02:29:07.761Z,100793.72
2023-05-10T02:31:36.473Z,100789.25
2023-05-10T02:34:04.978Z,100789.41
2023-05-10T02:36:32.948Z,100782.72
2023-05-10T02:39:02.966Z,100780.13
2023-05-10T02:41:33.854Z,100787.94
2023-05-10T02:44:04.234Z,100792.53
2023-05-10T02:46:31.960Z,100795.69
2023-05-10T02:49:01.017Z,100792.34
2023-05-10T02:51:35.848Z,100792.34
2023-05-10T02:54:11.433Z,100791.84
2023-05-10T02:56:43.602Z,100788.13
2023-05-10T02:59:10.987Z,100794.63
2023-05-10T03:01:38.112Z,100794.47
2023-05-10T03:04:05.420Z,100787.63
2023-05-10T03:06:32.596Z,100782.53
2023-05-10T03:08:59.853Z,100783.81
2023-05-10T03:11:32.967Z,100787.81
2023-05-10T03:14:18.346Z,100777.91
2023-05-10T03:16:48.462Z,100759.63
2023-05-10T03:19:23.630Z,100764.59
2023-05-10T03:21:54.063Z,100766.75
2023-05-10T03:24:28.663Z,100768.03
2023-05-10T03:27:00.419Z,100759.19
2023-05-10T03:29:29.149Z,100770.59
2023-05-10T03:31:56.340Z,100774.09
2023-05-10T03:34:26.942Z,100760.28
2023-05-10T03:36:54.235Z,100763.59
2023-05-10T03:39:22.402Z,100761.06
2023-05-10T03:41:49.501Z,100763.28
2023-05-10T03:44:16.570Z,100752.47
2023-05-10T03:46:43.830Z,100760.16
2023-05-10T03:49:11.200Z,100772.22
2023-05-10T03:51:38.283Z,100762.63
2023-05-10T03:54:05.410Z,100760.59
2023-05-10T03:56:32.420Z,100758.19
2023-05-10T03:58:59.489Z,100763.59
2023-05-10T04:01:26.606Z,100768.19
2023-05-10T04:03:54.382Z,100757.72
2023-05-10T04:06:21.930Z,100762.78
2023-05-10T04:08:49.092Z,100750.25
2023-05-10T04:11:16.521Z,100755.94
2023-05-10T04:13:44.133Z,100757.84
2023-05-10T04:16:11.245Z,100755.03
2023-05-10T04:18:38.327Z,100758.53
2023-05-10T04:21:05.495Z,100751.34
2023-05-10T04:23:32.620Z,100766.19
2023-05-10T04:26:04.777Z,100754.22
2023-05-10T04:28:32.024Z,100755.03
2023-05-10T04:31:03.664Z,100761.06
2023-05-10T04:33:30.839Z,100758.22
2023-05-10T04:35:58.216Z,100757.09
2023-05-10T04:38:25.807Z,100768.91
2023-05-10T04:40:53.094Z,100749.78
2023-05-10T04:43:20.294Z,100753.16
2023-05-10T04:45:49.629Z,100764.78
2023-05-10T04:48:16.982Z,100754.09
2023-05-10T04:50:44.004Z,100760.50
2023-05-10T04:53:11.150Z,100760.63
2023-05-10T04:55:39.602Z,100758.63
2023-05-10T04:58:06.735Z,100758.31
2023-05-10T05:00:34.634Z,100764.66
2023-05-10T05:03:02.072Z,100765.63
2023-05-10T05:05:29.251Z,100759.13
2023-05-10T05:07:56.304Z,100762.19
2023-05-10T05:10:26.044Z,100776.94
2023-05-10T05:12:53.288Z,100762.97
2023-05-10T05:15:22.129Z,100760.59
2023-05-10T05:17:49.248Z,100756.47
2023-05-10T05:20:16.907Z,100751.09
2023-05-10T05:22:44.312Z,100762.06
2023-05-10T05:25:12.850Z,100763.22
2023-05-10T05:27:39.883Z,100750.16
2023-05-10T05:30:08.284Z,100763.06
2023-05-10T05:32:35.381Z,100755.41
2023-05-10T05:35:02.795Z,100756.72
2023-05-10T05:37:30.131Z,100753.84
2023-05-10T05:39:58.058Z,100756.69
2023-05-10T05:42:25.568Z,100751.88
2023-05-10T05:44:52.678Z,100757.13
2023-05-10T05:47:19.705Z,100756.81
2023-05-10T05:49:46.943Z,100752.84
2023-05-10T05:52:14.421Z,100765.25
2023-05-10T05:54:41.609Z,100753.44
2023-05-10T05:57:11.255Z,100753.59
2023-05-10T05:59:42.900Z,100764.91
2023-05-10T06:02:10.192Z,100752.09
2023-05-10T06:04:37.371Z,100747.97
2023-05-10T06:07:04.581Z,100755.41
2023-05-10T06:09:31.835Z,100759.16
2023-05-10T06:11:59.191Z,100749.00
2023-05-10T06:14:26.280Z,100758.53
2023-05-10T06:16:53.478Z,100758.72
2023-05-10T06:19:20.941Z,100764.94
2023-05-10T06:21:48.213Z,100769.56
2023-05-10T06:24:15.412Z,100772.09
2023-05-10T06:26:42.919Z,100772.69
2023-05-10T06:29:10.331Z,100771.03
2023-05-10T06:31:37.414Z,100765.41
2023-05-10T06:34:04.487Z,100770.03
2023-05-10T06:36:32.115Z,100765.59
2023-05-10T06:39:00.241Z,100770.19
2023-05-10T06:41:27.661Z,100769.72
2023-05-10T06:43:54.843Z,100778.97
2023-05-10T06:46:26.903Z,100781.09
2023-05-10T06:48:54.123Z,100779.09
2023-05-10T06:51:22.224Z,100767.97
2023-05-10T06:53:49.645Z,100774.88
2023-05-10T06:56:16.773Z,100771.91
2023-05-10T06:58:44.252Z,100776.84
2023-05-10T07:01:14.489Z,100767.38
2023-05-10T07:03:41.660Z,100765.88
2023-05-10T07:06:15.676Z,100767.97
2023-05-10T07:08:49.156Z,100764.81
2023-05-10T07:11:16.365Z,100765.84
2023-05-10T07:13:45.453Z,100772.88
2023-05-10T07:16:12.704Z,100771.75
2023-05-10T07:18:39.807Z,100780.78
2023-05-10T07:21:07.239Z,100780.66
2023-05-10T07:23:34.320Z,100781.00
2023-05-10T07:26:03.489Z,100773.75
2023-05-10T07:28:30.954Z,100770.66
2023-05-10T07:30:59.780Z,100776.47
2023-05-10T07:33:29.637Z,100770.28
2023-05-10T07:35:56.693Z,100770.16
2023-05-10T07:38:24.338Z,100766.75
2023-05-10T07:40:51.476Z,100760.81
2023-05-10T07:43:20.199Z,100771.09
2023-05-10T07:45:47.332Z,100768.03
2023-05-10T07:48:14.444Z,100766.19
2023-05-10T07:50:41.727Z,100775.50
2023-05-10T07:53:08.765Z,100771.94
2023-05-10T07:55:36.210Z,100769.16
2023-05-10T07:58:03.784Z,100774.22
2023-05-10T08:00:30.860Z,100776.06
2023-05-10T08:02:59.622Z,100773.50
2023-05-10T08:05:26.872Z,100767.34
2023-05-10T08:07:54.116Z,100777.28
2023-05-10T08:10:21.583Z,100773.88
2023-05-10T08:12:48.984Z,100772.28
2023-05-10T08:15:16.461Z,100776.13
2023-05-10T08:17:44.191Z,100785.13
2023-05-10T08:20:13.789Z,100777.81
2023-05-10T08:22:41.363Z,100791.91
2023-05-10T08:25:09.153Z,100780.63
2023-05-10T08:27:36.207Z,100784.44
2023-05-10T08:30:05.175Z,100781.38
2023-05-10T08:32:32.577Z,100794.47
2023-05-10T08:34:59.678Z,100786.09
2023-05-10T08:37:31.056Z,100799.84
2023-05-10T08:39:58.617Z,100794.38
2023-05-10T08:42:31.034Z,100791.19
2023-05-10T08:44:59.190Z,100791.41
2023-05-10T08:47:26.712Z,100800.88
2023-05-10T08:49:55.243Z,100803.50
2023-05-10T08:52:25.738Z,100797.13
2023-05-10T08:54:53.188Z,100803.44
2023-05-10T08:57:20.970Z,100804.03
2023-05-10T08:59:48.463Z,100798.41
2023-05-10T09:02:18.605Z,100822.84
2023-05-10T09:04:46.058Z,100808.31
2023-05-10T09:07:13.565Z,100814.03
2023-05-10T09:09:41.788Z,100821.47
2023-05-10T09:12:12.157Z,100822.00
2023-05-10T09:14:39.960Z,100818.06
2023-05-10T09:17:09.470Z,100825.66
2023-05-10T09:19:36.892Z,100821.19
2023-05-10T09:22:04.157Z,100827.66
2023-05-10T09:24:32.030Z,100829.91
2023-05-10T09:27:02.189Z,100830.41
2023-05-10T09:29:42.803Z,100837.41
2023-05-10T09:32:10.033Z,100841.00
2023-05-10T09:37:09.148Z,100834.53
2023-05-10T09:39:37.743Z,100833.19
2023-05-10T09:42:07.903Z,100846.38
2023-05-10T09:44:36.189Z,100848.59
2023-05-10T09:47:03.731Z,100846.88
2023-05-10T09:49:31.306Z,100839.19
2023-05-10T09:52:03.583Z,100848.69
2023-05-10T09:54:31.564Z,100846.81
2023-05-10T09:56:58.823Z,100844.13
2023-05-10T09:59:27.955Z,100848.13
2023-05-10T10:02:00.392Z,100845.97
2023-05-10T10:04:28.237Z,100856.56
2023-05-10T10:07:05.950Z,100853.66
2023-05-10T10:09:34.531Z,100841.25
2023-05-10T10:12:03.425Z,100850.81
2023-05-10T10:14:30.722Z,100858.06
2023-05-10T10:17:07.680Z,100859.28
2023-05-10T10:19:37.133Z,100853.59
2023-05-10T10:22:05.058Z,100859.13
2023-05-10T10:24:32.249Z,100852.88
2023-05-10T10:27:09.252Z,100853.63
2023-05-10T10:29:45.758Z,100863.16
2023-05-10T10:32:28.285Z,100875.31
2023-05-10T10:34:56.728Z,100864.97
2023-05-10T10:37:23.936Z,100866.53
2023-05-10T10:39:51.434Z,100879.94
2023-05-10T10:42:48.094Z,100871.47
2023-05-10T10:45:15.455Z,100871.53
2023-05-10T10:47:44.280Z,100865.69
2023-05-10T10:50:14.042Z,100877.69
2023-05-10T10:52:42.290Z,100881.00
2023-05-10T10:55:24.553Z,100870.69
2023-05-10T10:57:53.512Z,100883.41
2023-05-10T11:00:31.963Z,100880.47
2023-05-10T11:03:09.495Z,100881.34
2023-05-10T11:05:42.817Z,100895.41
2023-05-10T11:08:29.441Z,100903.34
2023-05-10T11:11:08.474Z,100908.91
2023-05-10T11:13:42.564Z,100906.47
2023-05-10T11:16:27.874Z,100909.16
2023-05-10T11:19:02.208Z,100914.03
2023-05-10T11:21:32.085Z,100913.34
2023-05-10T11:24:07.331Z,100920.41
2023-05-10T11:26:38.152Z,100907.66
2023-05-10T11:29:06.322Z,100915.34
2023-05-10T11:31:33.766Z,100912.28
2023-05-10T11:34:04.624Z,100917.72
2023-05-10T11:36:37.082Z,100914.97
2023-05-10T11:39:05.116Z,100908.97
2023-05-10T11:41:32.897Z,100921.03
2023-05-10T11:44:00.438Z,100924.66
2023-05-10T11:46:29.331Z,100932.97
2023-05-10T11:49:02.686Z,100942.28
2023-05-10T11:51:30.496Z,100948.19
2023-05-10T11:53:58.230Z,100947.44
2023-05-10T11:56:27.539Z,100952.63
2023-05-10T11:58:56.809Z,100960.97
2023-05-10T12:01:25.496Z,100953.19
2023-05-10T12:03:55.083Z,100955.16
2023-05-10T12:06:23.189Z,100957.22
2023-05-10T12:08:54.646Z,100955.88
2023-05-10T12:11:25.571Z,100964.75
2023-05-10T12:13:52.697Z,100968.81
2023-05-10T12:16:25.723Z,100967.94
2023-05-10T12:18:57.699Z,100969.28
2023-05-10T12:21:25.462Z,100978.03
2023-05-10T12:23:54.797Z,100972.25
2023-05-10T12:26:29.340Z,100971.78
2023-05-10T12:29:13.371Z,100966.38
2023-05-10T12:32:00.510Z,100962.47
2023-05-10T12:34:35.305Z,100962.75
2023-05-10T12:37:03.538Z,100967.59
2023-05-10T12:39:45.056Z,100971.13
2023-05-10T12:42:12.578Z,100970.91
2023-05-10T12:44:40.829Z,100982.69
2023-05-10T12:47:08.117Z,100974.31
2023-05-10T12:49:35.410Z,100973.84
2023-05-10T12:52:02.816Z,100978.63
2023-05-10T12:54:29.885Z,100989.75
2023-05-10T12:56:57.239Z,100998.63
2023-05-10T12:59:24.745Z,100998.63
2023-05-10T13:01:51.889Z,101002.00
2023-05-10T13:04:19.321Z,100999.28
2023-05-10T13:06:46.932Z,100990.97
2023-05-10T13:09:14.542Z,100991.78
2023-05-10T13:11:41.956Z,100979.72
2023-05-10T13:14:09.159Z,100971.88
2023-05-10T13:16:37.155Z,100961.91
2023-05-10T13:19:04.619Z,100962.28
2023-05-10T13:21:32.163Z,100959.50
2023-05-10T13:23:59.301Z,100954.28
2023-05-10T13:26:26.641Z,100945.47
2023-05-10T13:28:56.768Z,100948.41
2023-05-10T13:31:23.866Z,100945.69
2023-05-10T13:33:51.549Z,100951.03
2023-05-10T13:36:19.095Z,100934.59
2023-05-10T13:38:46.915Z,100940.63
2023-05-10T13:41:14.677Z,100950.81
2023-05-10T13:43:42.135Z,100959.50
2023-05-10T13:46:09.400Z,100964.16
2023-05-10T13:48:39.207Z,100957.41
2023-05-10T13:51:06.883Z,100952.38
2023-05-10T13:53:34.366Z,100958.59
2023-05-10T13:56:01.662Z,100956.94
2023-05-10T13:58:29.000Z,100958.84
2023-05-10T14:00:57.032Z,100964.69
2023-05-10T14:03:24.240Z,100970.28
2023-05-10T14:05:51.809Z,100975.81
2023-05-10T14:08:18.974Z,100980.47
2023-05-10T14:10:45.998Z,100982.28
2023-05-10T14:13:14.390Z,100988.19
2023-05-10T14:15:42.304Z,100988.91
2023-05-10T14:18:09.461Z,100990.97
2023-05-10T14:20:36.590Z,101002.03
2023-05-10T14:23:03.680Z,100991.88
2023-05-10T14:25:31.094Z,101007.22
2023-05-10T14:27:58.219Z,101011.00
2023-05-10T14:30:25.640Z,101004.66
2023-05-10T14:32:54.997Z,101008.22
2023-05-10T14:35:22.508Z,101005.41
2023-05-10T14:37:49.976Z,101013.25
2023-05-10T14:40:18.094Z,101013.16
2023-05-10T14:42:45.302Z,101022.00
2023-05-10T14:45:13.201Z,101017.41
2023-05-10T14:47:40.809Z,101025.53
2023-05-10T14:50:08.848Z,101025.91
2023-05-10T14:52:36.016Z,101030.28
2023-05-10T14:55:04.514Z,101033.69
2023-05-10T14:57:32.630Z,101034.50
2023-05-10T15:00:04.739Z,101029.00
2023-05-10T15:02:33.177Z,101030.16
2023-05-10T15:05:01.172Z,101029.63
2023-05-10T15:07:29.166Z,101024.44
2023-05-10T15:09:57.254Z,101036.66
2023-05-10T15:12:24.721Z,101044.09
2023-05-10T15:14:52.090Z,101046.28
2023-05-10T15:17:19.357Z,101048.47
2023-05-10T15:19:46.877Z,101044.00
2023-05-10T15:22:14.276Z,101041.38
2023-05-10T15:24:42.452Z,101042.31
2023-05-10T15:27:10.109Z,101041.84
2023-05-10T15:29:37.259Z,101037.09
2023-05-10T15:32:04.870Z,101048.97
2023-05-10T15:34:34.925Z,101051.09
2023-05-10T15:37:03.064Z,101048.03
2023-05-10T15:39:30.704Z,101051.19
2023-05-10T15:41:58.093Z,101056.66
2023-05-10T15:44:25.500Z,101053.00
2023-05-10T15:46:53.264Z,101053.63
2023-05-10T15:49:20.733Z,101067.22
2023-05-10T15:51:48.557Z,101068.38
2023-05-10T15:54:16.115Z,101072.97
2023-05-10T15:56:43.803Z,101069.75
2023-05-10T15:59:12.220Z,101074.09
2023-05-10T16:01:39.709Z,101069.03
2023-05-10T16:04:07.334Z,101075.38
2023-05-10T16:06:36.455Z,101075.63
2023-05-10T16:09:04.466Z,101074.44
2023-05-10T16:11:31.630Z,101074.31
2023-05-10T16:13:59.080Z,101073.16
2023-05-10T16:16:26.292Z,101065.47
2023-05-10T16:18:54.438Z,101070.94
2023-05-10T16:21:22.792Z,101078.97
2023-05-10T16:23:50.007Z,101074.34
2023-05-10T16:26:18.030Z,101078.75
2023-05-10T16:28:45.257Z,101079.19
2023-05-10T16:31:12.641Z,101075.09
2023-05-10T16:33:40.529Z,101082.16
2023-05-10T16:36:07.763Z,101080.22
2023-05-10T16:38:35.008Z,101088.91
2023-05-10T16:41:04.141Z,101090.25
2023-05-10T16:43:32.902Z,101086.84
2023-05-10T16:46:00.336Z,101083.97
2023-05-10T16:48:28.219Z,101087.38
2023-05-10T16:50:55.665Z,101086.75
2023-05-10T16:53:22.860Z,101089.41
2023-05-10T16:55:50.294Z,101093.56
2023-05-10T16:58:17.365Z,101085.38
2023-05-10T17:00:45.122Z,101090.19
2023-05-10T17:03:12.977Z,101081.09
2023-05-10T17:05:41.359Z,101088.69
2023-05-10T17:08:09.498Z,101087.16
2023-05-10T17:10:40.743Z,101081.44
2023-05-10T17:13:10.441Z,101091.66
2023-05-10T17:15:39.575Z,101096.34
2023-05-10T17:18:07.862Z,101094.91
2023-05-10T17:20:35.915Z,101099.13
2023-05-10T17:23:03.480Z,101091.56
2023-05-10T17:25:32.024Z,101097.97
2023-05-10T17:28:01.065Z,101097.63
2023-05-10T17:30:33.330Z,101102.03
2023-05-10T17:33:00.994Z,101106.38
2023-05-10T17:35:28.475Z,101110.31
2023-05-10T17:37:55.912Z,101110.06
2023-05-10T17:40:23.036Z,101113.97
2023-05-10T17:42:50.392Z,101121.84
2023-05-10T17:45:18.049Z,101123.84
2023-05-10T17:47:45.886Z,101128.09
2023-05-10T17:50:13.118Z,101132.19
2023-05-10T17:52:40.575Z,101132.16
2023-05-10T17:55:09.117Z,101132.16
2023-05-10T17:57:38.123Z,101133.38
2023-05-10T18:00:08.815Z,101131.47
2023-05-10T18:02:37.088Z,101128.13
2023-05-10T18:05:05.144Z,101135.19
2023-05-10T18:07:32.449Z,101131.03
2023-05-10T18:10:01.335Z,101130.59
2023-05-10T18:12:28.873Z,101138.56
2023-05-10T18:14:56.065Z,101130.63
2023-05-10T18:17:23.174Z,101131.31
2023-05-10T18:19:50.466Z,101131.47
2023-05-10T18:22:17.822Z,101136.81
2023-05-10T18:24:47.154Z,101139.75
2023-05-10T18:27:14.457Z,101141.72
2023-05-10T18:29:42.827Z,101136.88
2023-05-10T18:32:10.387Z,101137.13
2023-05-10T18:34:37.435Z,101132.56
2023-05-10T18:37:07.606Z,101143.38
2023-05-10T18:39:37.335Z,101140.63
2023-05-10T18:42:05.524Z,101135.41
2023-05-10T18:44:34.622Z,101139.38
2023-05-10T18:47:01.780Z,101147.44
2023-05-10T18:49:29.540Z,101147.69
2023-05-10T18:51:56.734Z,101147.69
2023-05-10T18:54:24.120Z,101154.47
2023-05-10T18:56:51.201Z,101155.72
2023-05-10T18:59:18.632Z,101159.13
2023-05-10T19:01:46.350Z,101150.97
2023-05-10T19:04:15.151Z,101167.63
2023-05-10T19:06:45.295Z,101167.28
2023-05-10T19:09:12.534Z,101172.72
2023-05-10T19:11:41.208Z,101164.78
2023-05-10T19:14:08.461Z,101173.75
2023-05-10T19:16:35.900Z,101163.50
2023-05-10T19:19:04.213Z,101181.53
2023-05-10T19:21:33.604Z,101182.88
2023-05-10T19:24:01.753Z,101174.81
2023-05-10T19:26:29.037Z,101176.06
2023-05-10T19:28:57.684Z,101176.13
2023-05-10T19:31:25.703Z,101171.03
2023-05-10T19:33:54.031Z,101173.03
2023-05-10T19:36:22.180Z,101169.66
2023-05-10T19:38:49.930Z,101172.03
2023-05-10T19:41:17.996Z,101173.03
2023-05-10T19:43:45.696Z,101174.69
2023-05-10T19:46:17.809Z,101176.16
2023-05-10T19:48:48.889Z,101175.03
2023-05-10T19:51:17.370Z,101176.16
2023-05-10T19:53:48.050Z,101175.56
2023-05-10T19:56:17.265Z,101165.88
2023-05-10T19:58:45.280Z,101170.50
2023-05-10T20:01:13.062Z,101173.78
2023-05-10T20:03:40.501Z,101166.94
2023-05-10T20:06:07.985Z,101156.47
2023-05-10T20:08:35.249Z,101154.06
2023-05-10T20:11:04.054Z,101157.28
2023-05-10T20:13:31.992Z,101144.56
2023-05-10T20:16:00.303Z,101144.56
2023-05-10T20:18:27.539Z,101134.56
2023-05-10T20:20:58.866Z,101134.41
2023-05-10T20:23:26.509Z,101133.28
2023-05-10T20:25:55.115Z,101132.06
2023-05-10T20:28:24.051Z,101138.97
2023-05-10T20:30:53.394Z,101129.88
2023-05-10T20:33:21.944Z,101125.09
2023-05-10T20:35:50.484Z,101125.91
2023-05-10T20:38:18.335Z,101116.31
2023-05-10T20:40:45.776Z,101110.13
2023-05-10T20:43:12.964Z,101113.59
2023-05-10T20:45:40.353Z,101113.72
2023-05-10T20:48:07.882Z,101118.03
2023-05-10T20:50:35.814Z,101113.28
2023-05-10T20:53:02.928Z,101113.31
2023-05-10T20:55:30.491Z,101109.66
2023-05-10T20:57:57.556Z,101103.28
2023-05-10T21:00:25.066Z,101105.03
2023-05-10T21:02:52.415Z,101094.22
2023-05-10T21:05:19.713Z,101094.72
2023-05-10T21:07:47.293Z,101086.72
2023-05-10T21:10:14.289Z,101079.53
2023-05-10T21:12:41.913Z,101079.06
2023-05-10T21:15:09.489Z,101084.78
2023-05-10T21:17:37.239Z,101077.31
2023-05-10T21:20:04.701Z,101069.84
2023-05-10T21:22:31.760Z,101068.06
2023-05-10T21:24:58.855Z,101066.81
2023-05-10T21:27:29.067Z,101065.84
2023-05-10T21:29:56.197Z,101062.50
2023-05-10T21:32:23.595Z,101058.53
2023-05-10T21:34:51.527Z,101060.91
2023-05-10T21:37:19.190Z,101053.22
2023-05-10T21:39:46.445Z,101056.53
2023-05-10T21:42:16.325Z,101056.06
2023-05-10T21:44:45.115Z,101062.50
2023-05-10T21:47:12.338Z,101053.84
2023-05-10T21:49:39.468Z,101044.91
2023-05-10T21:52:07.866Z,101061.19
2023-05-10T21:54:43.993Z,101053.38
2023-05-10T21:57:11.417Z,101049.38
2023-05-10T21:59:39.548Z,101050.34
2023-05-10T22:02:11.377Z,101052.22
2023-05-10T22:04:38.560Z,101057.00
2023-05-10T22:07:06.090Z,101056.38
2023-05-10T22:09:33.208Z,101056.69
2023-05-10T22:12:00.399Z,101069.63
2023-05-10T22:14:27.683Z,101066.44
2023-05-10T22:16:54.774Z,101077.31
2023-05-10T22:19:22.183Z,101076.81
2023-05-10T22:21:49.357Z,101076.22
2023-05-10T22:24:16.555Z,101081.78
2023-05-10T22:26:43.585Z,101084.97
2023-05-10T22:29:10.959Z,101086.41
2023-05-10T22:31:38.110Z,101087.09
2023-05-10T22:34:05.776Z,101083.56
2023-05-10T22:36:32.863Z,101086.94
2023-05-10T22:38:59.956Z,101085.63
2023-05-10T22:41:26.968Z,101104.50
2023-05-10T22:43:54.097Z,101094.56
2023-05-10T22:46:21.199Z,101103.19
2023-05-10T22:48:48.513Z,101117.72
2023-05-10T22:51:15.719Z,101126.22
2023-05-10T22:53:42.757Z,101126.06
2023-05-10T22:56:09.798Z,101134.03
2023-05-10T22:58:36.936Z,101145.56
2023-05-10T23:01:04.346Z,101155.63
2023-05-10T23:03:31.457Z,101156.25
2023-05-10T23:05:58.487Z,101163.78
2023-05-10T23:08:25.865Z,101167.41
2023-05-10T23:10:53.253Z,101170.66
2023-05-10T23:13:22.132Z,101166.66
2023-05-10T23:15:50.297Z,101176.25
2023-05-10T23:18:17.782Z,101170.94
2023-05-10T23:20:44.900Z,101176.38
2023-05-10T23:23:11.994Z,101177.53
2023-05-10T23:25:39.091Z,101177.22
2023-05-10T23:28:06.253Z,101176.88
2023-05-10T23:30:33.368Z,101191.88
2023-05-10T23:33:00.472Z,101196.38
2023-05-10T23:35:27.626Z,101185.66
2023-05-10T23:37:54.861Z,101174.81
2023-05-10T23:40:22.105Z,101194.59
2023-05-10T23:42:49.130Z,101182.50
2023-05-10T23:45:17.615Z,101191.44
2023-05-10T23:47:44.744Z,101187.63
2023-05-10T23:50:11.891Z,101172.41
2023-05-10T23:52:38.955Z,101176.91
2023-05-10T23:55:06.423Z,101177.38
2023-05-10T23:57:33.784Z,101169.22
